Time;durP1;ratioP1;P1;durP2;ratioP2;P2;SDS_P1;SDS_P2;PMS_P1;PMS_P2;Temp;Humidity;BMP_temperature;BMP_pressure;BME280_temperature;BME280_humidity;BME280_pressure;Samples;Min_cycle;Max_cycle;Signal;HPM_P1;HPM_P2
2022/06/14 00:03:16;;;;;;;18.65;3.15;;;;;;;;;;5062418;28;20127;-76
2022/06/14 00:05:43;;;;;;;21.98;2.90;;;;;;;;;;5059774;28;20064;-76
2022/06/14 00:08:09;;;;;;;18.60;2.90;;;;;;;;;;5069097;28;20029;-75
2022/06/14 00:10:35;;;;;;;11.10;2.40;;;;;;;;;;5067812;28;20025;-75
2022/06/14 00:13:01;;;;;;;20.33;3.33;;;;;;;;;;5069296;28;20029;-77
2022/06/14 00:15:27;;;;;;;15.68;3.38;;;;;;;;;;5068462;28;20447;-76
2022/06/14 00:17:53;;;;;;;23.05;3.83;;;;;;;;;;5068474;28;20104;-75
2022/06/14 00:20:19;;;;;;;20.42;3.22;;;;;;;;;;5068359;28;20025;-74
2022/06/14 00:22:45;;;;;;;19.75;3.10;;;;;;;;;;5063889;28;20042;-76
2022/06/14 00:25:21;;;;;;;17.90;3.05;;;;;;;;;;5068220;28;20036;-75
2022/06/14 00:27:47;;;;;;;15.63;3.00;;;;;;;;;;5074039;28;20033;-76
2022/06/14 00:30:13;;;;;;;13.90;2.92;;;;;;;;;;5075465;28;20034;-75
2022/06/14 00:32:39;;;;;;;13.98;3.05;;;;;;;;;;5074402;28;20100;-74
2022/06/14 00:35:05;;;;;;;17.65;3.25;;;;;;;;;;5068959;28;20047;-76
2022/06/14 00:37:31;;;;;;;17.40;2.92;;;;;;;;;;5071694;28;20044;-76
2022/06/14 00:39:57;;;;;;;16.02;3.13;;;;;;;;;;5054162;28;20478;-78
2022/06/14 00:42:23;;;;;;;13.18;2.72;;;;;;;;;;5054609;28;20528;-77
2022/06/14 00:45:21;;;;;;;17.13;3.22;;;;;;;;;;5055192;28;20612;-76
2022/06/14 00:48:09;;;;;;;16.40;3.35;;;;;;;;;;5054002;28;20025;-76
2022/06/14 00:50:40;;;;;;;17.88;3.45;;;;;;;;;;5053859;28;20029;-78
2022/06/14 00:53:09;;;;;;;18.50;3.08;;;;;;;;;;5053718;28;20029;-76
2022/06/14 00:55:40;;;;;;;13.88;2.88;;;;;;;;;;5055561;28;20071;-76
2022/06/14 00:58:17;;;;;;;21.05;2.72;;;;;;;;;;5054487;28;20025;-77
2022/06/14 01:00:49;;;;;;;14.88;2.92;;;;;;;;;;5053998;28;20036;-76
2022/06/14 01:03:19;;;;;;;15.75;3.00;;;;;;;;;;5054240;28;20084;-76
2022/06/14 01:06:05;;;;;;;19.58;2.83;;;;;;;;;;5053413;28;20095;-75
2022/06/14 01:08:32;;;;;;;18.92;3.00;;;;;;;;;;5053804;28;20497;-76
2022/06/14 01:10:58;;;;;;;22.38;2.90;;;;;;;;;;5053690;28;20040;-75
2022/06/14 01:13:24;;;;;;;17.90;3.38;;;;;;;;;;5054476;28;20025;-75
2022/06/14 01:15:50;;;;;;;19.10;3.03;;;;;;;;;;5052937;28;20031;-78
2022/06/14 01:18:17;;;;;;;17.42;3.40;;;;;;;;;;5060536;28;20079;-76
2022/06/14 01:20:43;;;;;;;22.48;3.35;;;;;;;;;;5063182;28;20028;-75
2022/06/14 01:23:11;;;;;;;22.33;2.97;;;;;;;;;;5057557;28;20025;-75
2022/06/14 01:25:38;;;;;;;22.25;4.13;;;;;;;;;;5053811;28;20494;-75
2022/06/14 01:28:05;;;;;;;21.30;3.17;;;;;;;;;;5053622;28;20064;-76
2022/06/14 01:30:33;;;;;;;21.33;2.70;;;;;;;;;;5054220;28;20103;-75
2022/06/14 01:33:02;;;;;;;12.40;2.60;;;;;;;;;;5053714;28;20025;-75
2022/06/14 01:35:32;;;;;;;15.05;2.35;;;;;;;;;;5052020;28;20033;-77
2022/06/14 01:37:59;;;;;;;17.10;3.28;;;;;;;;;;5053681;28;20017;-77
2022/06/14 01:40:29;;;;;;;17.85;2.85;;;;;;;;;;5053911;28;20031;-76
2022/06/14 01:43:15;;;;;;;22.98;3.20;;;;;;;;;;5052663;28;20083;-77
2022/06/14 01:45:45;;;;;;;24.80;3.55;;;;;;;;;;5054571;28;20605;-78
2022/06/14 01:48:21;;;;;;;19.00;3.60;;;;;;;;;;5059761;28;20029;-76
2022/06/14 01:54:13;;;;;;;21.67;3.33;;;;;;;;;;5078488;28;20048;-75
2022/06/14 01:56:39;;;;;;;25.67;2.83;;;;;;;;;;5059309;28;20041;-77
2022/06/14 01:59:10;;;;;;;13.15;2.65;;;;;;;;;;5057641;28;20390;-77
2022/06/14 02:01:58;;;;;;;17.98;2.58;;;;;;;;;;5057812;28;20041;-76
2022/06/14 02:04:38;;;;;;;17.55;2.65;;;;;;;;;;5057332;28;20037;-76
2022/06/14 02:07:08;;;;;;;17.65;2.92;;;;;;;;;;5057684;28;20025;-77
2022/06/14 02:09:40;;;;;;;14.57;2.75;;;;;;;;;;5055983;28;20094;-76
2022/06/14 02:12:08;;;;;;;18.63;3.05;;;;;;;;;;5057156;28;20037;-76
2022/06/14 02:14:49;;;;;;;23.83;3.88;;;;;;;;;;5057217;28;20037;-77
2022/06/14 02:17:28;;;;;;;14.63;3.03;;;;;;;;;;5055643;28;20052;-77
2022/06/14 02:20:05;;;;;;;15.57;2.85;;;;;;;;;;5057469;28;20032;-77
2022/06/14 02:22:37;;;;;;;20.73;2.85;;;;;;;;;;5061811;28;20025;-77
2022/06/14 02:25:06;;;;;;;20.50;3.45;;;;;;;;;;5060486;28;20032;-76
2022/06/14 02:27:32;;;;;;;21.88;2.63;;;;;;;;;;5057245;28;20025;-76
2022/06/14 02:30:05;;;;;;;15.13;2.83;;;;;;;;;;5059273;28;20048;-74
2022/06/14 02:32:31;;;;;;;13.40;3.28;;;;;;;;;;5062209;28;20079;-75
2022/06/14 02:35:03;;;;;;;17.80;2.70;;;;;;;;;;5061373;28;20464;-75
2022/06/14 02:37:42;;;;;;;11.45;2.90;;;;;;;;;;5070763;28;20048;-75
2022/06/14 02:40:16;;;;;;;14.57;2.97;;;;;;;;;;5067322;28;20025;-75
2022/06/14 02:42:54;;;;;;;18.73;3.67;;;;;;;;;;5065419;28;20035;-76
2022/06/14 02:45:23;;;;;;;20.50;2.83;;;;;;;;;;5061280;28;20025;-76
2022/06/14 02:48:00;;;;;;;20.40;3.50;;;;;;;;;;5058462;28;20036;-75
2022/06/14 02:50:30;;;;;;;14.70;2.90;;;;;;;;;;5055551;28;20098;-75
2022/06/14 02:53:15;;;;;;;13.00;2.20;;;;;;;;;;5054764;28;20493;-76
2022/06/14 02:55:48;;;;;;;14.65;2.53;;;;;;;;;;5055045;28;20474;-76
2022/06/14 02:58:30;;;;;;;21.93;3.60;;;;;;;;;;5055548;28;20032;-75
2022/06/14 03:00:59;;;;;;;16.83;3.00;;;;;;;;;;5055197;28;20122;-75
2022/06/14 03:03:54;;;;;;;13.73;2.85;;;;;;;;;;5056044;28;20174;-75
2022/06/14 03:06:29;;;;;;;18.50;3.00;;;;;;;;;;5018758;28;20096;-76
2022/06/14 03:08:57;;;;;;;19.85;2.92;;;;;;;;;;5056050;28;20032;-76
2022/06/14 03:11:49;;;;;;;18.58;3.15;;;;;;;;;;5056985;28;20055;-76
2022/06/14 03:14:30;;;;;;;12.10;2.85;;;;;;;;;;5061177;28;20028;-77
2022/06/14 03:16:56;;;;;;;19.50;2.92;;;;;;;;;;5061258;28;20394;-76
2022/06/14 03:19:43;;;;;;;17.23;3.13;;;;;;;;;;5061797;28;20021;-76
2022/06/14 03:22:12;;;;;;;17.23;3.05;;;;;;;;;;5072137;28;20025;-75
2022/06/14 03:24:56;;;;;;;18.35;3.50;;;;;;;;;;5066248;28;20029;-76
2022/06/14 03:27:28;;;;;;;24.80;3.70;;;;;;;;;;5056802;28;20063;-76
2022/06/14 03:29:59;;;;;;;20.75;2.80;;;;;;;;;;5054652;28;20124;-76
2022/06/14 03:32:30;;;;;;;16.25;3.08;;;;;;;;;;5055415;28;20120;-75
2022/06/14 03:35:01;;;;;;;15.27;2.80;;;;;;;;;;5055839;28;20505;-76
2022/06/14 03:37:27;;;;;;;13.43;2.90;;;;;;;;;;5056016;28;20021;-77
2022/06/14 03:39:56;;;;;;;18.17;3.17;;;;;;;;;;5057603;28;20025;-77
2022/06/14 03:42:22;;;;;;;16.23;2.30;;;;;;;;;;5056747;28;20047;-77
2022/06/14 03:44:49;;;;;;;32.08;3.40;;;;;;;;;;5058394;28;20029;-77
2022/06/14 03:47:21;;;;;;;17.40;3.28;;;;;;;;;;5057376;28;20052;-76
2022/06/14 03:49:50;;;;;;;15.57;3.08;;;;;;;;;;5055207;28;20028;-78
2022/06/14 03:52:22;;;;;;;13.25;3.67;;;;;;;;;;5055812;28;20107;-78
2022/06/14 03:54:57;;;;;;;18.77;3.47;;;;;;;;;;5055809;28;20029;-76
2022/06/14 03:57:24;;;;;;;18.20;3.05;;;;;;;;;;5054532;28;20394;-76
2022/06/14 03:59:56;;;;;;;18.67;3.67;;;;;;;;;;5056692;28;20429;-77
2022/06/14 04:02:53;;;;;;;21.33;3.33;;;;;;;;;;5055995;28;20061;-76
2022/06/14 04:05:21;;;;;;;18.80;3.33;;;;;;;;;;5056851;28;20087;-76
2022/06/14 04:07:52;;;;;;;22.45;3.63;;;;;;;;;;5056524;28;20440;-77
2022/06/14 04:10:31;;;;;;;13.43;2.88;;;;;;;;;;5056919;28;20788;-76
2022/06/14 04:13:16;;;;;;;14.68;3.10;;;;;;;;;;5063512;28;20029;-77
2022/06/14 04:15:48;;;;;;;19.20;3.05;;;;;;;;;;5060975;28;20039;-76
2022/06/14 04:18:35;;;;;;;16.25;2.70;;;;;;;;;;5057923;28;20402;-76
2022/06/14 04:21:20;;;;;;;22.67;4.13;;;;;;;;;;5062595;28;20021;-77
2022/06/14 04:24:08;;;;;;;17.50;3.92;;;;;;;;;;5056631;28;20754;-75
2022/06/14 04:26:54;;;;;;;22.67;3.05;;;;;;;;;;5055237;28;20060;-75
2022/06/14 04:29:45;;;;;;;18.58;2.88;;;;;;;;;;5048826;28;20036;-76
2022/06/14 04:32:19;;;;;;;21.23;3.17;;;;;;;;;;5057466;28;20444;-79
2022/06/14 04:34:48;;;;;;;18.13;2.92;;;;;;;;;;5062209;28;20032;-79
2022/06/14 04:37:17;;;;;;;13.48;2.85;;;;;;;;;;5061649;28;20020;-78
2022/06/14 04:39:45;;;;;;;17.23;3.10;;;;;;;;;;5060143;28;20017;-80
2022/06/14 04:42:24;;;;;;;24.13;3.45;;;;;;;;;;5061866;28;20124;-79
2022/06/14 04:45:08;;;;;;;19.67;3.42;;;;;;;;;;5061018;28;20455;-78
2022/06/14 04:47:42;;;;;;;25.80;3.72;;;;;;;;;;5061130;28;20075;-78
2022/06/14 04:50:12;;;;;;;20.77;3.17;;;;;;;;;;5061811;28;20029;-79
2022/06/14 04:52:41;;;;;;;24.50;3.88;;;;;;;;;;5064146;28;20025;-78
2022/06/14 04:55:15;;;;;;;15.90;3.28;;;;;;;;;;5064218;28;20061;-78
2022/06/14 04:58:01;;;;;;;33.75;4.28;;;;;;;;;;5064200;28;20029;-77
2022/06/14 05:00:32;;;;;;;21.33;3.42;;;;;;;;;;5059713;28;20027;-77
2022/06/14 05:02:58;;;;;;;17.70;3.33;;;;;;;;;;5062222;28;20036;-78
2022/06/14 05:05:29;;;;;;;21.60;3.17;;;;;;;;;;5058317;28;20033;-78
2022/06/14 05:08:11;;;;;;;23.00;3.45;;;;;;;;;;5057682;28;20072;-77
2022/06/14 05:10:42;;;;;;;27.42;4.18;;;;;;;;;;5064647;28;20037;-79
2022/06/14 05:13:13;;;;;;;14.30;3.03;;;;;;;;;;5067593;28;20033;-77
2022/06/14 05:15:39;;;;;;;20.80;3.50;;;;;;;;;;5075948;22;20048;-76
2022/06/14 05:18:12;;;;;;;18.95;3.13;;;;;;;;;;5053717;28;20017;-79
2022/06/14 05:20:47;;;;;;;19.02;3.00;;;;;;;;;;5054644;28;20037;-77
2022/06/14 05:23:21;;;;;;;21.48;3.97;;;;;;;;;;5053073;28;20075;-76
2022/06/14 05:25:47;;;;;;;;;;;;;;;;;;5053373;28;20024;-76
2022/06/14 05:28:15;;;;;;;20.70;3.10;;;;;;;;;;5053330;28;19912;-75
2022/06/14 05:30:41;;;;;;;16.67;3.25;;;;;;;;;;5035089;28;20036;-74
2022/06/14 05:33:21;;;;;;;20.73;3.30;;;;;;;;;;5052572;28;20029;-75
2022/06/14 05:35:52;;;;;;;22.65;3.28;;;;;;;;;;5053063;28;20029;-75
2022/06/14 05:38:25;;;;;;;20.50;3.28;;;;;;;;;;5053453;28;20025;-75
2022/06/14 05:41:02;;;;;;;27.15;3.70;;;;;;;;;;5053341;28;20147;-74
2022/06/14 05:43:28;;;;;;;20.08;3.90;;;;;;;;;;5053317;28;20500;-74
2022/06/14 05:46:05;;;;;;;23.77;3.92;;;;;;;;;;5056603;28;20116;-74
2022/06/14 05:48:33;;;;;;;16.70;2.88;;;;;;;;;;5057053;28;20036;-75
2022/06/14 05:51:00;;;;;;;21.67;4.18;;;;;;;;;;5056511;28;20033;-75
2022/06/14 05:53:39;;;;;;;15.80;3.38;;;;;;;;;;5057451;28;20104;-74
2022/06/14 05:56:21;;;;;;;26.90;4.85;;;;;;;;;;5052340;28;20093;-73
2022/06/14 05:58:54;;;;;;;15.85;3.58;;;;;;;;;;5055167;28;20025;-74
2022/06/14 06:01:29;;;;;;;19.83;3.25;;;;;;;;;;5057041;28;20048;-75
2022/06/14 06:04:00;;;;;;;20.05;3.90;;;;;;;;;;5059176;28;20433;-73
2022/06/14 06:06:36;;;;;;;25.58;3.20;;;;;;;;;;5057540;28;20052;-74
2022/06/14 06:09:07;;;;;;;21.98;3.67;;;;;;;;;;5043497;28;20021;-75
2022/06/14 06:11:39;;;;;;;18.80;4.35;;;;;;;;;;5059141;28;20389;-74
2022/06/14 06:14:11;;;;;;;23.65;3.15;;;;;;;;;;5055677;28;20047;-76
2022/06/14 06:19:12;;;;;;;23.63;4.05;;;;;;;;;;5057644;28;20022;-73
2022/06/14 06:21:54;;;;;;;24.10;3.13;;;;;;;;;;5058310;28;20083;-74
2022/06/14 06:24:24;;;;;;;22.05;4.22;;;;;;;;;;5054461;28;20056;-74
2022/06/14 06:26:52;;;;;;;15.02;3.20;;;;;;;;;;5052905;28;20044;-74
2022/06/14 06:29:24;;;;;;;20.95;4.10;;;;;;;;;;5053648;28;20390;-74
2022/06/14 06:31:50;;;;;;;23.65;3.65;;;;;;;;;;5051580;28;20028;-73
2022/06/14 06:34:17;;;;;;;17.92;3.22;;;;;;;;;;5033597;28;20060;-73
2022/06/14 06:37:02;;;;;;;18.90;3.33;;;;;;;;;;5053746;28;20024;-74
2022/06/14 06:39:31;;;;;;;17.05;3.45;;;;;;;;;;5055778;28;20052;-74
2022/06/14 06:42:02;;;;;;;20.42;3.97;;;;;;;;;;5059839;28;20108;-74
2022/06/14 06:44:28;;;;;;;25.92;2.92;;;;;;;;;;5062588;28;20074;-74
2022/06/14 06:47:00;;;;;;;24.42;3.50;;;;;;;;;;5061290;28;20405;-74
2022/06/14 06:49:30;;;;;;;19.75;3.35;;;;;;;;;;5064339;28;20040;-74
2022/06/14 06:52:00;;;;;;;23.30;3.60;;;;;;;;;;5063344;28;20029;-73
2022/06/14 06:54:28;;;;;;;19.17;2.90;;;;;;;;;;5045757;28;20088;-74
2022/06/14 06:56:57;;;;;;;20.42;3.58;;;;;;;;;;5045715;28;20400;-74
2022/06/14 06:59:29;;;;;;;21.98;3.22;;;;;;;;;;5058900;28;20474;-75
2022/06/14 07:01:57;;;;;;;22.65;3.45;;;;;;;;;;5056358;28;20075;-74
2022/06/14 07:07:25;;;;;;;19.23;5.03;;;;;;;;;;5055532;28;20516;-74
2022/06/14 07:09:58;;;;;;;17.67;3.40;;;;;;;;;;5055929;28;20029;-74
2022/06/14 07:12:28;;;;;;;28.48;3.65;;;;;;;;;;5055745;28;20036;-76
2022/06/14 07:14:59;;;;;;;19.98;3.20;;;;;;;;;;5055181;28;20029;-75
2022/06/14 07:17:54;;;;;;;20.45;3.25;;;;;;;;;;5055480;28;20025;-74
2022/06/14 07:20:33;;;;;;;26.33;3.45;;;;;;;;;;5035124;28;20037;-74
2022/06/14 07:23:11;;;;;;;22.58;3.63;;;;;;;;;;5056396;28;20029;-74
2022/06/14 07:25:41;;;;;;;19.83;3.30;;;;;;;;;;5055687;28;20021;-74
2022/06/14 07:28:29;;;;;;;24.42;3.45;;;;;;;;;;5054816;28;20032;-74
2022/06/14 07:30:57;;;;;;;24.92;3.30;;;;;;;;;;5037234;28;20029;-73
2022/06/14 07:33:24;;;;;;;19.70;3.28;;;;;;;;;;5054874;28;20057;-74
2022/06/14 07:35:50;;;;;;;19.83;3.33;;;;;;;;;;5054516;28;20021;-75
2022/06/14 07:38:19;;;;;;;19.38;3.20;;;;;;;;;;5054781;28;20051;-74
2022/06/14 07:40:47;;;;;;;18.25;3.05;;;;;;;;;;5054626;28;20017;-74
2022/06/14 07:43:17;;;;;;;16.33;2.78;;;;;;;;;;5054434;28;20136;-74
2022/06/14 07:45:47;;;;;;;11.45;2.58;;;;;;;;;;5054530;28;20017;-75
2022/06/14 07:48:18;;;;;;;15.70;3.03;;;;;;;;;;5053943;28;20508;-74
2022/06/14 07:50:44;;;;;;;15.35;2.92;;;;;;;;;;5055169;28;20025;-74
2022/06/14 07:53:17;;;;;;;12.50;2.85;;;;;;;;;;5055475;28;20432;-75
2022/06/14 07:55:43;;;;;;;20.95;3.00;;;;;;;;;;5057629;28;20033;-74
2022/06/14 07:58:36;;;;;;;16.17;3.70;;;;;;;;;;5065506;28;20021;-74
2022/06/14 08:01:09;;;;;;;17.60;3.50;;;;;;;;;;5065654;28;20052;-75
2022/06/14 08:03:48;;;;;;;16.23;3.40;;;;;;;;;;5062544;28;20110;-73
2022/06/14 08:06:20;;;;;;;20.48;2.97;;;;;;;;;;5063321;28;20021;-74
2022/06/14 08:08:47;;;;;;;20.13;2.78;;;;;;;;;;5055611;28;20040;-74
2022/06/14 08:11:22;;;;;;;16.27;2.80;;;;;;;;;;5053977;28;20102;-75
2022/06/14 08:13:53;;;;;;;18.90;2.25;;;;;;;;;;5053932;28;20060;-74
2022/06/14 08:16:19;;;;;;;14.50;2.90;;;;;;;;;;5054095;28;20033;-76
2022/06/14 08:18:47;;;;;;;17.00;2.72;;;;;;;;;;5056231;28;20025;-74
2022/06/14 08:21:19;;;;;;;21.92;3.85;;;;;;;;;;5055340;28;20024;-74
2022/06/14 08:23:45;;;;;;;17.48;2.47;;;;;;;;;;5055310;28;20078;-74
2022/06/14 08:26:14;;;;;;;14.52;2.58;;;;;;;;;;5036511;28;20021;-74
2022/06/14 08:28:42;;;;;;;11.90;2.35;;;;;;;;;;5055248;28;20104;-73
2022/06/14 08:31:30;;;;;;;12.55;2.50;;;;;;;;;;5055844;28;20476;-75
2022/06/14 08:34:03;;;;;;;16.45;3.13;;;;;;;;;;5039438;28;20392;-74
2022/06/14 08:36:35;;;;;;;14.10;3.03;;;;;;;;;;5056601;28;20032;-74
2022/06/14 08:39:07;;;;;;;16.95;2.95;;;;;;;;;;5054144;28;20256;-75
2022/06/14 08:41:47;;;;;;;17.27;2.88;;;;;;;;;;5053428;28;20470;-75
2022/06/14 08:44:37;;;;;;;17.00;2.90;;;;;;;;;;5053277;28;20533;-74
2022/06/14 08:47:29;;;;;;;21.38;3.65;;;;;;;;;;5040624;28;20041;-74
2022/06/14 08:50:06;;;;;;;18.67;3.10;;;;;;;;;;5053216;28;20045;-73
2022/06/14 08:52:51;;;;;;;16.30;2.80;;;;;;;;;;5053853;28;20025;-74
2022/06/14 08:55:17;;;;;;;;;;;;;;;;;;5054025;28;20029;-75
2022/06/14 08:57:49;;;;;;;16.30;3.38;;;;;;;;;;5053464;28;19911;-75
2022/06/14 09:00:34;;;;;;;16.23;3.65;;;;;;;;;;5053509;28;20096;-74
2022/06/14 09:03:00;;;;;;;19.98;2.83;;;;;;;;;;5054470;28;20035;-74
2022/06/14 09:05:34;;;;;;;14.68;2.67;;;;;;;;;;5035058;28;20123;-74
2022/06/14 09:08:06;;;;;;;15.07;2.53;;;;;;;;;;5035640;28;20036;-75
2022/06/14 09:10:32;;;;;;;15.52;3.08;;;;;;;;;;5035129;28;20029;-74
2022/06/14 09:13:23;;;;;;;19.65;2.90;;;;;;;;;;5053439;28;20051;-74
2022/06/14 09:16:08;;;;;;;17.67;2.67;;;;;;;;;;5052620;28;20037;-74
2022/06/14 09:18:39;;;;;;;14.15;2.92;;;;;;;;;;5052599;28;20394;-74
2022/06/14 09:21:08;;;;;;;14.80;2.72;;;;;;;;;;5052495;28;20402;-74
2022/06/14 09:23:44;;;;;;;8.98;1.90;;;;;;;;;;5053136;28;20060;-75
2022/06/14 09:26:37;;;;;;;13.52;2.47;;;;;;;;;;5052434;28;20062;-74
2022/06/14 09:29:30;;;;;;;12.75;2.88;;;;;;;;;;5015711;28;20064;-75
2022/06/14 09:32:21;;;;;;;16.13;2.75;;;;;;;;;;5035720;28;20029;-74
2022/06/14 09:35:06;;;;;;;19.73;3.17;;;;;;;;;;5052966;28;20078;-73
2022/06/14 09:37:50;;;;;;;19.77;3.47;;;;;;;;;;5034579;28;20157;-74
2022/06/14 09:40:29;;;;;;;16.85;4.28;;;;;;;;;;5034805;28;20033;-74
2022/06/14 09:43:15;;;;;;;16.77;3.00;;;;;;;;;;5035110;28;20037;-75
2022/06/14 09:45:41;;;;;;;18.98;2.63;;;;;;;;;;5052468;28;20044;-74
2022/06/14 09:48:21;;;;;;;12.85;3.13;;;;;;;;;;5053529;28;20335;-73
2022/06/14 09:50:50;;;;;;;10.15;2.67;;;;;;;;;;5053254;28;20025;-75
2022/06/14 09:53:35;;;;;;;15.18;2.78;;;;;;;;;;5062720;28;20029;-76
2022/06/14 09:56:22;;;;;;;10.18;2.40;;;;;;;;;;5054973;28;20025;-75
2022/06/14 09:58:48;;;;;;;12.93;2.20;;;;;;;;;;5052789;28;20037;-75
2022/06/14 10:01:46;;;;;;;16.17;2.45;;;;;;;;;;5053076;28;20025;-74
2022/06/14 10:04:31;;;;;;;15.77;3.00;;;;;;;;;;4998326;28;20048;-74
2022/06/14 10:07:16;;;;;;;15.95;2.38;;;;;;;;;;5034075;28;20074;-74
2022/06/14 10:09:52;;;;;;;12.40;2.60;;;;;;;;;;5053659;28;20029;-75
2022/06/14 10:12:30;;;;;;;15.43;4.07;;;;;;;;;;5063038;28;20025;-74
2022/06/14 10:15:09;;;;;;;11.52;2.55;;;;;;;;;;5046621;28;20024;-74
2022/06/14 10:17:49;;;;;;;9.27;2.10;;;;;;;;;;5065670;28;20029;-74
2022/06/14 10:20:15;;;;;;;12.65;2.17;;;;;;;;;;5071899;28;20039;-73
2022/06/14 10:22:53;;;;;;;12.57;2.35;;;;;;;;;;5069610;28;20024;-73
2022/06/14 10:25:32;;;;;;;11.43;2.35;;;;;;;;;;5056182;28;20272;-74
2022/06/14 10:28:16;;;;;;;14.07;2.78;;;;;;;;;;5055777;28;20025;-74
2022/06/14 10:30:49;;;;;;;8.55;1.90;;;;;;;;;;5056268;28;20043;-75
2022/06/14 10:33:34;;;;;;;18.75;6.00;;;;;;;;;;5056283;28;20028;-74
2022/06/14 10:36:09;;;;;;;13.60;2.80;;;;;;;;;;5055529;28;20025;-73
2022/06/14 10:38:35;;;;;;;11.73;2.17;;;;;;;;;;5055524;28;20066;-75
2022/06/14 10:41:01;;;;;;;14.23;2.58;;;;;;;;;;5037560;28;20089;-74
2022/06/14 10:43:31;;;;;;;14.20;2.40;;;;;;;;;;5056051;28;20080;-75
2022/06/14 10:46:01;;;;;;;11.63;2.80;;;;;;;;;;5055660;28;20025;-75
2022/06/14 10:48:39;;;;;;;9.65;2.47;;;;;;;;;;5056631;28;20108;-74
2022/06/14 10:51:20;;;;;;;7.40;1.95;;;;;;;;;;5055399;28;20021;-74
2022/06/14 10:53:51;;;;;;;10.82;2.15;;;;;;;;;;5056273;28;20045;-75
2022/06/14 10:56:35;;;;;;;8.60;1.88;;;;;;;;;;5038228;28;20021;-75
2022/06/14 10:59:20;;;;;;;12.05;2.45;;;;;;;;;;5055644;28;20023;-75
2022/06/14 11:02:04;;;;;;;15.52;4.45;;;;;;;;;;5055406;28;20033;-74
2022/06/14 11:04:33;;;;;;;15.35;3.03;;;;;;;;;;5056182;28;20028;-74
2022/06/14 11:07:08;;;;;;;7.97;2.20;;;;;;;;;;5055249;28;20414;-74
2022/06/14 11:09:48;;;;;;;13.05;2.42;;;;;;;;;;5055358;28;20110;-75
2022/06/14 11:12:33;;;;;;;5.18;1.50;;;;;;;;;;5037847;28;20067;-74
2022/06/14 11:17:27;;;;;;;7.60;3.63;;;;;;;;;;5072757;22;20037;-77
2022/06/14 11:19:59;;;;;;;16.08;8.45;;;;;;;;;;5057026;28;20018;-75
2022/06/14 11:22:28;;;;;;;14.48;9.52;;;;;;;;;;5056994;28;20512;-76
2022/06/14 11:24:55;;;;;;;7.07;2.90;;;;;;;;;;5056633;28;20036;-77
2022/06/14 11:27:57;;;;;;;9.00;3.05;;;;;;;;;;5055609;28;20029;-76
2022/06/14 11:30:31;;;;;;;8.50;1.70;;;;;;;;;;4986592;28;20041;-75
2022/06/14 11:33:20;;;;;;;6.85;1.60;;;;;;;;;;5070325;28;20063;-74
2022/06/14 11:35:52;;;;;;;7.25;1.77;;;;;;;;;;5061096;28;20036;-74
2022/06/14 11:38:22;;;;;;;11.18;2.40;;;;;;;;;;5057468;28;20029;-79
2022/06/14 11:40:50;;;;;;;7.30;1.83;;;;;;;;;;5057360;28;20025;-76
2022/06/14 11:43:19;;;;;;;12.13;2.33;;;;;;;;;;5070150;28;20040;-76
2022/06/14 11:46:04;;;;;;;13.10;2.33;;;;;;;;;;5068775;28;20059;-75
2022/06/14 11:48:34;;;;;;;8.23;2.35;;;;;;;;;;5058239;28;20024;-76
2022/06/14 11:51:22;;;;;;;7.22;1.35;;;;;;;;;;5056687;28;20110;-76
2022/06/14 11:53:54;;;;;;;6.53;1.50;;;;;;;;;;5056243;28;20036;-76
2022/06/14 11:56:41;;;;;;;10.00;1.90;;;;;;;;;;5053999;28;20500;-75
2022/06/14 11:59:14;;;;;;;18.58;3.53;;;;;;;;;;5054555;28;20063;-76
2022/06/14 12:01:40;;;;;;;12.68;2.40;;;;;;;;;;5056137;28;20042;-75
2022/06/14 12:04:07;;;;;;;7.60;1.50;;;;;;;;;;5055558;28;20499;-75
2022/06/14 12:06:37;;;;;;;32.60;19.17;;;;;;;;;;5053992;28;20084;-75
2022/06/14 12:09:26;;;;;;;12.20;6.50;;;;;;;;;;5056436;28;20025;-75
2022/06/14 12:11:59;;;;;;;6.68;2.30;;;;;;;;;;5059438;28;20029;-75
2022/06/14 12:14:28;;;;;;;9.57;1.80;;;;;;;;;;5057769;28;20052;-76
2022/06/14 12:16:58;;;;;;;10.30;1.50;;;;;;;;;;5057408;28;20029;-74
2022/06/14 12:19:30;;;;;;;4.85;1.33;;;;;;;;;;5056097;28;20021;-76
2022/06/14 12:22:26;;;;;;;6.10;1.73;;;;;;;;;;5057350;28;20029;-74
2022/06/14 12:27:40;;;;;;;11.65;2.10;;;;;;;;;;5058936;28;20035;-78
2022/06/14 12:30:07;;;;;;;8.43;1.63;;;;;;;;;;5062447;28;20059;-76
2022/06/14 12:32:35;;;;;;;7.50;1.70;;;;;;;;;;5056994;28;20150;-75
2022/06/14 12:35:04;;;;;;;9.73;3.30;;;;;;;;;;5056198;28;20470;-74
2022/06/14 12:37:47;;;;;;;10.25;2.20;;;;;;;;;;5056606;28;20067;-78
2022/06/14 12:40:25;;;;;;;9.48;2.67;;;;;;;;;;5056868;28;20024;-76
2022/06/14 12:43:09;;;;;;;12.75;2.40;;;;;;;;;;5054613;28;20025;-76
2022/06/14 12:45:38;;;;;;;10.33;2.10;;;;;;;;;;5055742;28;20549;-75
2022/06/14 12:48:15;;;;;;;10.75;2.13;;;;;;;;;;5056047;28;20392;-77
2022/06/14 12:50:44;;;;;;;9.88;1.92;;;;;;;;;;5056482;28;20021;-77
2022/06/14 12:53:23;;;;;;;9.23;4.85;;;;;;;;;;5055519;28;20021;-75
2022/06/14 12:55:56;;;;;;;12.65;3.67;;;;;;;;;;5055811;28;20021;-75
2022/06/14 12:58:42;;;;;;;8.32;1.88;;;;;;;;;;5055068;28;20021;-75
2022/06/14 13:01:15;;;;;;;9.27;1.85;;;;;;;;;;5054884;28;20029;-76
2022/06/14 13:03:51;;;;;;;10.20;2.15;;;;;;;;;;5054784;28;20055;-76
2022/06/14 13:06:27;;;;;;;11.60;2.63;;;;;;;;;;5054749;28;20029;-77
2022/06/14 13:08:53;;;;;;;6.35;2.10;;;;;;;;;;5054618;28;20024;-75
2022/06/14 13:11:19;;;;;;;7.65;2.05;;;;;;;;;;5054685;28;20448;-76
2022/06/14 13:13:45;;;;;;;7.22;2.28;;;;;;;;;;5054355;28;20147;-76
2022/06/14 13:16:18;;;;;;;8.57;1.92;;;;;;;;;;5054513;28;20041;-76
2022/06/14 13:19:02;;;;;;;7.63;2.03;;;;;;;;;;5055442;28;20032;-76
2022/06/14 13:21:53;;;;;;;18.92;2.90;;;;;;;;;;5055244;28;20036;-76
2022/06/14 13:24:37;;;;;;;6.70;1.80;;;;;;;;;;5054638;28;20029;-74
2022/06/14 13:27:10;;;;;;;14.27;4.18;;;;;;;;;;5054409;28;20139;-74
2022/06/14 13:29:39;;;;;;;13.23;2.42;;;;;;;;;;5054643;28;20036;-76
2022/06/14 13:32:05;;;;;;;11.27;1.95;;;;;;;;;;5057604;28;20035;-73
2022/06/14 13:34:58;;;;;;;7.70;1.63;;;;;;;;;;5061933;28;20387;-74
2022/06/14 13:37:41;;;;;;;5.40;1.50;;;;;;;;;;5058920;28;20057;-73
2022/06/14 13:40:26;;;;;;;7.68;1.80;;;;;;;;;;5063420;28;20043;-74
2022/06/14 13:42:52;;;;;;;;;;;;;;;;;;5068092;28;20051;-73
2022/06/14 13:45:26;;;;;;;10.15;3.75;;;;;;;;;;5063936;28;19905;-75
2022/06/14 13:47:58;;;;;;;9.73;2.00;;;;;;;;;;5059908;28;20080;-77
2022/06/14 13:50:42;;;;;;;10.13;1.90;;;;;;;;;;5060475;28;20082;-78
2022/06/14 13:53:16;;;;;;;6.80;1.60;;;;;;;;;;5056812;28;20090;-76
2022/06/14 13:55:44;;;;;;;7.38;2.40;;;;;;;;;;5057935;28;20025;-76
2022/06/14 13:58:14;;;;;;;6.72;2.17;;;;;;;;;;5058631;28;20039;-75
2022/06/14 14:00:40;;;;;;;6.90;2.28;;;;;;;;;;5057779;28;20047;-75
2022/06/14 14:03:25;;;;;;;5.95;1.83;;;;;;;;;;5058662;28;20025;-76
2022/06/14 14:06:05;;;;;;;8.23;1.85;;;;;;;;;;5058363;28;20428;-75
2022/06/14 14:08:44;;;;;;;9.82;1.85;;;;;;;;;;5058510;28;20048;-75
2022/06/14 14:11:17;;;;;;;7.78;1.80;;;;;;;;;;5059112;28;20029;-75
2022/06/14 14:13:43;;;;;;;7.70;1.80;;;;;;;;;;5058129;28;20452;-76
2022/06/14 14:16:12;;;;;;;10.48;1.50;;;;;;;;;;5057915;28;20087;-75
2022/06/14 14:18:41;;;;;;;6.82;1.80;;;;;;;;;;5058068;28;20413;-76
2022/06/14 14:21:20;;;;;;;7.43;1.30;;;;;;;;;;5056415;28;20033;-76
2022/06/14 14:24:05;;;;;;;5.93;1.45;;;;;;;;;;5058428;28;20029;-75
2022/06/14 14:26:31;;;;;;;;;;;;;;;;;;5057346;28;20489;-76
2022/06/14 14:29:20;;;;;;;7.35;1.80;;;;;;;;;;5058922;28;19905;-76
2022/06/14 14:31:49;;;;;;;5.57;1.40;;;;;;;;;;5057589;28;20548;-76
2022/06/14 14:34:15;;;;;;;9.80;1.90;;;;;;;;;;5057795;28;20090;-76
2022/06/14 14:37:01;;;;;;;12.27;2.65;;;;;;;;;;5058449;28;20029;-76
2022/06/14 14:39:33;;;;;;;10.82;2.10;;;;;;;;;;5057759;28;20469;-77
2022/06/14 14:42:10;;;;;;;7.95;1.90;;;;;;;;;;5057248;28;20105;-77
2022/06/14 14:44:47;;;;;;;7.32;1.95;;;;;;;;;;5058179;28;20025;-75
2022/06/14 14:47:16;;;;;;;7.45;2.38;;;;;;;;;;5057513;28;20021;-76
2022/06/14 14:49:47;;;;;;;7.00;2.35;;;;;;;;;;5056873;28;20040;-76
2022/06/14 14:52:28;;;;;;;5.45;1.60;;;;;;;;;;5058037;28;20021;-75
2022/06/14 14:55:13;;;;;;;6.63;2.20;;;;;;;;;;5057728;28;20024;-75
2022/06/14 14:57:42;;;;;;;10.00;1.92;;;;;;;;;;5056667;28;20070;-74
2022/06/14 15:00:20;;;;;;;6.75;1.92;;;;;;;;;;5058719;28;20019;-77
2022/06/14 15:05:49;;;;;;;5.78;1.52;;;;;;;;;;5066243;28;20059;-75
2022/06/14 15:08:27;;;;;;;5.75;1.98;;;;;;;;;;5064233;28;20036;-75
2022/06/14 15:11:04;;;;;;;5.25;1.98;;;;;;;;;;5060629;28;20076;-74
2022/06/14 15:13:44;;;;;;;4.32;1.42;;;;;;;;;;5060316;28;20061;-77
2022/06/14 15:16:29;;;;;;;5.90;1.60;;;;;;;;;;5065364;28;20037;-75
2022/06/14 15:21:59;;;;;;;3.00;1.10;;;;;;;;;;5058238;28;19912;-75
2022/06/14 15:24:27;;;;;;;4.72;1.30;;;;;;;;;;5057261;28;20584;-76
2022/06/14 15:27:03;;;;;;;2.83;1.17;;;;;;;;;;5056532;28;20033;-74
2022/06/14 15:29:32;;;;;;;5.45;1.10;;;;;;;;;;5058359;28;20382;-74
2022/06/14 15:32:13;;;;;;;4.47;1.30;;;;;;;;;;5057705;28;20111;-74
2022/06/14 15:34:46;;;;;;;4.57;1.10;;;;;;;;;;5058677;28;20017;-76
2022/06/14 15:37:18;;;;;;;10.90;2.27;;;;;;;;;;5055983;28;20025;-75